Scandia, Kansas
Current Conditions -  °F | °C
As of 2:10 AM on Thursday 29 Jan 2015 (Local Time) from KCNK Reporting Station
Overcast Overcast  
Wind Chill: 33°   Ceiling: 2800
Heat Index: 43°   Visibility: 10mi
Dew Point: 33°   Wind: 28mph
Humidity: 68%   Direction: 350°N
Pressure: 30.16"   Gusts: 35mph
Location:  39.79°N, 97.78°W
Report Text: KCNK 290810Z AUTO 35024G30KT 10SM OVC028 06/01 A3016 RMK AO2 PK WND 33034/0757 T00610006
Loading
Personal Weather Stations






























Interactive Weather Map New forecast layout! Learn more

10-Day Weather Forecast

Advertisements
Track Severe Weather on mobile